createdAt,value
2022-12-25T00:00:56.782Z,55.86
2022-12-25T00:03:23.584Z,56.52
2022-12-25T00:05:50.331Z,56.46
2022-12-25T00:08:17.021Z,56.57
2022-12-25T00:10:45.491Z,56.88
2022-12-25T00:13:12.502Z,57.07
2022-12-25T00:15:41.694Z,57.19
2022-12-25T00:18:08.538Z,57.27
2022-12-25T00:20:35.581Z,57.51
2022-12-25T00:23:02.541Z,57.30
2022-12-25T00:25:29.400Z,57.49
2022-12-25T00:27:56.199Z,57.52
2022-12-25T00:30:22.805Z,57.67
2022-12-25T00:32:49.458Z,57.46
2022-12-25T00:35:16.094Z,57.28
2022-12-25T00:37:42.683Z,57.58
2022-12-25T00:40:09.955Z,57.82
2022-12-25T00:42:36.625Z,57.70
2022-12-25T00:45:04.797Z,57.67
2022-12-25T00:47:31.459Z,57.83
2022-12-25T00:49:58.101Z,57.66
2022-12-25T00:52:24.729Z,57.68
2022-12-25T00:54:51.614Z,57.99
2022-12-25T00:57:18.456Z,57.75
2022-12-25T00:59:45.249Z,57.96
2022-12-25T01:02:23.865Z,57.62
2022-12-25T01:04:52.530Z,57.98
2022-12-25T01:07:20.083Z,57.83
2022-12-25T01:10:06.122Z,57.89
2022-12-25T01:12:35.026Z,57.97
2022-12-25T01:15:01.705Z,57.49
2022-12-25T01:17:28.339Z,57.71
2022-12-25T01:19:55.038Z,57.82
2022-12-25T01:22:21.680Z,58.20
2022-12-25T01:24:48.341Z,57.67
2022-12-25T01:27:15.207Z,58.04
2022-12-25T01:29:42.201Z,57.88
2022-12-25T01:32:08.983Z,58.02
2022-12-25T01:34:36.002Z,58.11
2022-12-25T01:37:02.816Z,58.21
2022-12-25T01:39:29.969Z,57.82
2022-12-25T01:41:56.992Z,58.15
2022-12-25T01:44:35.488Z,57.79
2022-12-25T01:47:03.140Z,58.05
2022-12-25T01:49:32.346Z,58.12
2022-12-25T01:52:05.382Z,57.98
2022-12-25T01:54:57.621Z,58.49
2022-12-25T01:57:28.853Z,57.95
2022-12-25T01:59:57.858Z,58.02
2022-12-25T02:02:24.915Z,57.97
2022-12-25T02:04:57.868Z,58.08
2022-12-25T02:07:26.875Z,58.29
2022-12-25T02:09:54.251Z,58.38
2022-12-25T02:12:29.306Z,58.24
2022-12-25T02:15:04.972Z,58.61
2022-12-25T02:17:41.352Z,58.62
2022-12-25T02:20:43.716Z,58.46
2022-12-25T02:23:23.512Z,58.65
2022-12-25T02:26:20.805Z,58.92
2022-12-25T02:29:17.454Z,58.98
2022-12-25T02:31:59.454Z,59.00
2022-12-25T02:34:51.358Z,58.86
2022-12-25T02:37:28.298Z,58.64
2022-12-25T02:40:10.709Z,58.87
2022-12-25T02:43:14.356Z,59.01
2022-12-25T02:46:18.659Z,59.11
2022-12-25T02:49:10.693Z,59.02
2022-12-25T02:52:01.793Z,58.96
2022-12-25T02:54:55.211Z,59.05
2022-12-25T02:57:45.299Z,58.96
2022-12-25T03:00:32.601Z,59.34
2022-12-25T03:03:21.541Z,58.98
2022-12-25T03:06:08.552Z,59.08
2022-12-25T03:08:41.793Z,59.35
2022-12-25T03:11:31.212Z,59.13
2022-12-25T03:14:22.838Z,59.00
2022-12-25T03:16:54.252Z,58.99
2022-12-25T03:19:44.757Z,59.02
2022-12-25T03:22:42.401Z,59.21
2022-12-25T03:25:28.385Z,59.36
2022-12-25T03:27:57.674Z,59.10
2022-12-25T03:30:51.041Z,59.08
2022-12-25T03:34:01.530Z,59.23
2022-12-25T03:37:07.145Z,58.84
2022-12-25T03:40:31.202Z,58.75
2022-12-25T03:44:02.575Z,58.63
2022-12-25T03:47:01.355Z,58.78
2022-12-25T03:50:03.732Z,58.42
2022-12-25T03:52:51.618Z,58.62
2022-12-25T03:55:38.108Z,58.68
2022-12-25T03:58:23.707Z,58.92
2022-12-25T04:01:08.868Z,58.81
2022-12-25T04:03:54.133Z,58.91
2022-12-25T04:06:39.618Z,59.03
2022-12-25T04:09:24.788Z,58.79
2022-12-25T04:12:10.273Z,59.07
2022-12-25T04:14:55.695Z,58.67
2022-12-25T04:17:40.889Z,58.88
2022-12-25T04:20:26.706Z,58.90
2022-12-25T04:23:11.926Z,58.63
2022-12-25T04:25:57.343Z,58.83
2022-12-25T04:28:42.874Z,58.75
2022-12-25T04:31:27.921Z,58.41
2022-12-25T04:34:13.348Z,58.86
2022-12-25T04:36:39.966Z,58.60
2022-12-25T04:39:06.574Z,58.79
2022-12-25T04:41:33.156Z,59.06
2022-12-25T04:43:59.704Z,58.96
2022-12-25T04:46:26.524Z,58.79
2022-12-25T04:48:53.301Z,58.69
2022-12-25T04:51:22.788Z,58.67
2022-12-25T04:53:51.378Z,58.85
2022-12-25T04:56:19.268Z,58.69
2022-12-25T04:58:46.461Z,58.84
2022-12-25T05:01:14.033Z,58.84
2022-12-25T05:03:41.204Z,58.88
2022-12-25T05:06:08.246Z,58.50
2022-12-25T05:08:36.103Z,58.57
2022-12-25T05:11:11.021Z,58.67
2022-12-25T05:13:38.282Z,58.88
2022-12-25T05:16:10.077Z,58.92
2022-12-25T05:18:36.931Z,58.65
2022-12-25T05:21:04.491Z,58.78
2022-12-25T05:23:31.732Z,58.64
2022-12-25T05:25:58.469Z,58.52
2022-12-25T05:28:25.262Z,58.68
2022-12-25T05:30:52.001Z,59.13
2022-12-25T05:33:18.848Z,59.31
2022-12-25T05:35:45.654Z,59.10
2022-12-25T05:38:12.454Z,58.90
2022-12-25T05:40:40.917Z,58.77
2022-12-25T05:43:08.509Z,58.78
2022-12-25T05:45:35.830Z,58.62
2022-12-25T05:48:02.564Z,58.64
2022-12-25T05:50:29.171Z,58.92
2022-12-25T05:53:09.345Z,59.02
2022-12-25T05:55:37.617Z,58.86
2022-12-25T05:58:06.101Z,58.90
2022-12-25T06:00:33.472Z,58.98
2022-12-25T06:03:00.517Z,59.13
2022-12-25T06:05:27.352Z,59.41
2022-12-25T06:07:54.124Z,58.66
2022-12-25T06:10:20.885Z,58.63
2022-12-25T06:12:47.511Z,59.01
2022-12-25T06:15:14.377Z,58.62
2022-12-25T06:17:41.099Z,59.10
2022-12-25T06:20:08.609Z,58.92
2022-12-25T06:22:35.603Z,59.08
2022-12-25T06:25:02.382Z,59.44
2022-12-25T06:27:29.129Z,59.43
2022-12-25T06:29:56.203Z,59.72
2022-12-25T06:32:22.951Z,59.39
2022-12-25T06:34:49.783Z,59.66
2022-12-25T06:37:16.645Z,59.47
2022-12-25T06:39:43.512Z,59.69
2022-12-25T06:42:10.355Z,59.73
2022-12-25T06:44:38.324Z,59.64
2022-12-25T06:47:05.462Z,59.54
2022-12-25T06:49:32.277Z,59.50
2022-12-25T06:51:58.937Z,59.53
2022-12-25T06:54:25.789Z,59.67
2022-12-25T06:56:52.684Z,59.56
2022-12-25T06:59:19.521Z,58.92
2022-12-25T07:01:49.524Z,59.42
2022-12-25T07:04:21.593Z,59.44
2022-12-25T07:06:48.360Z,59.71
2022-12-25T07:09:15.148Z,59.71
2022-12-25T07:11:41.901Z,59.81
2022-12-25T07:14:23.246Z,59.52
2022-12-25T07:16:51.050Z,59.67
2022-12-25T07:19:17.905Z,59.61
2022-12-25T07:21:44.579Z,59.73
2022-12-25T07:24:11.441Z,59.77
2022-12-25T07:26:38.206Z,59.50
2022-12-25T07:29:04.775Z,59.85
2022-12-25T07:31:31.654Z,59.34
2022-12-25T07:33:58.452Z,59.54
2022-12-25T07:36:25.242Z,59.43
2022-12-25T07:38:51.903Z,59.53
2022-12-25T07:41:18.693Z,59.70
2022-12-25T07:43:45.598Z,59.75
2022-12-25T07:46:12.430Z,59.26
2022-12-25T07:48:39.184Z,59.65
2022-12-25T07:51:08.524Z,59.18
2022-12-25T07:53:35.137Z,59.35
2022-12-25T07:56:28.320Z,59.43
2022-12-25T07:58:55.091Z,59.69
2022-12-25T08:01:24.541Z,59.66
2022-12-25T08:03:54.052Z,59.56
2022-12-25T08:06:23.010Z,59.85
2022-12-25T08:08:49.772Z,59.80
2022-12-25T08:11:16.420Z,59.58
2022-12-25T08:13:43.087Z,59.77
2022-12-25T08:16:10.868Z,59.58
2022-12-25T08:18:38.694Z,59.49
2022-12-25T08:21:08.783Z,59.73
2022-12-25T08:23:38.121Z,59.66
2022-12-25T08:26:05.975Z,59.81
2022-12-25T08:28:33.939Z,59.74
2022-12-25T08:31:06.544Z,59.39
2022-12-25T08:33:33.259Z,59.43
2022-12-25T08:36:08.256Z,59.62
2022-12-25T08:38:35.272Z,59.80
2022-12-25T08:41:02.239Z,59.74
2022-12-25T08:43:29.454Z,59.85
2022-12-25T08:45:56.411Z,59.79
2022-12-25T08:48:23.403Z,59.72
2022-12-25T08:50:51.844Z,59.80
2022-12-25T08:53:19.360Z,59.84
2022-12-25T08:55:45.990Z,59.64
2022-12-25T08:58:14.394Z,59.80
2022-12-25T09:00:41.322Z,59.79
2022-12-25T09:03:08.290Z,59.76
2022-12-25T09:05:38.521Z,60.01
2022-12-25T09:08:05.341Z,60.03
2022-12-25T09:10:35.715Z,60.12
2022-12-25T09:13:02.481Z,60.12
2022-12-25T09:15:29.238Z,59.76
2022-12-25T09:17:55.859Z,59.82
2022-12-25T09:20:22.467Z,59.82
2022-12-25T09:22:49.271Z,59.88
2022-12-25T09:25:16.111Z,59.74
2022-12-25T09:27:43.672Z,59.87
2022-12-25T09:30:11.165Z,59.88
2022-12-25T09:32:40.364Z,59.65
2022-12-25T09:35:08.526Z,59.93
2022-12-25T09:37:35.490Z,60.21
2022-12-25T09:40:02.461Z,59.99
2022-12-25T09:42:32.379Z,60.17
2022-12-25T09:45:12.201Z,59.83
2022-12-25T09:47:43.496Z,59.89
2022-12-25T09:50:28.663Z,59.72
2022-12-25T09:53:02.852Z,59.68
2022-12-25T09:55:34.091Z,59.63
2022-12-25T09:58:08.454Z,59.94
2022-12-25T10:00:57.712Z,59.75
2022-12-25T10:03:35.949Z,59.93
2022-12-25T10:06:13.262Z,59.69
2022-12-25T10:09:28.510Z,59.72
2022-12-25T10:12:04.021Z,59.85
2022-12-25T10:15:01.980Z,59.93
2022-12-25T10:17:52.203Z,59.75
2022-12-25T10:21:12.785Z,59.78
2022-12-25T10:23:48.088Z,59.77
2022-12-25T10:26:18.088Z,59.91
2022-12-25T10:28:58.283Z,59.83
2022-12-25T10:31:28.433Z,59.72
2022-12-25T10:33:55.850Z,60.01
2022-12-25T10:36:25.925Z,59.66
2022-12-25T10:38:53.297Z,60.19
2022-12-25T10:41:56.501Z,59.83
2022-12-25T10:44:24.747Z,59.77
2022-12-25T10:46:54.465Z,59.88
2022-12-25T10:49:23.956Z,59.66
2022-12-25T10:51:50.970Z,60.01
2022-12-25T10:54:29.958Z,60.13
2022-12-25T10:57:16.141Z,60.02
2022-12-25T10:59:48.541Z,59.64
2022-12-25T11:02:24.566Z,59.84
2022-12-25T11:04:58.694Z,59.79
2022-12-25T11:07:26.607Z,59.85
2022-12-25T11:10:18.883Z,59.77
2022-12-25T11:12:46.398Z,59.62
2022-12-25T11:15:41.947Z,59.79
2022-12-25T11:18:24.138Z,59.34
2022-12-25T11:20:53.235Z,58.98
2022-12-25T11:23:23.266Z,58.38
2022-12-25T11:26:07.085Z,58.24
2022-12-25T11:28:37.137Z,58.25
2022-12-25T11:31:19.824Z,57.81
2022-12-25T11:33:59.165Z,57.51
2022-12-25T11:36:37.690Z,57.26
2022-12-25T11:39:32.927Z,57.09
2022-12-25T11:42:04.864Z,57.14
2022-12-25T11:44:43.929Z,56.95
2022-12-25T11:47:42.791Z,56.64
2022-12-25T11:50:09.646Z,56.51
2022-12-25T11:52:40.356Z,56.44
2022-12-25T11:55:18.917Z,56.05
2022-12-25T11:57:51.480Z,55.68
2022-12-25T12:00:19.189Z,55.86
2022-12-25T12:02:58.860Z,55.55
2022-12-25T12:05:45.972Z,55.32
2022-12-25T12:08:13.968Z,55.16
2022-12-25T12:10:54.306Z,55.22
2022-12-25T12:13:35.854Z,55.13
2022-12-25T12:16:03.913Z,54.87
2022-12-25T12:18:32.699Z,54.88
2022-12-25T12:21:09.425Z,55.04
2022-12-25T12:23:57.593Z,55.15
2022-12-25T12:26:27.300Z,54.77
2022-12-25T12:29:00.357Z,54.91
2022-12-25T12:31:42.465Z,55.04
2022-12-25T12:34:28.933Z,54.99
2022-12-25T12:37:26.363Z,54.54
2022-12-25T12:39:54.771Z,54.83
2022-12-25T12:42:31.150Z,54.58
2022-12-25T12:45:08.355Z,54.74
2022-12-25T12:47:41.757Z,54.80
2022-12-25T12:50:26.603Z,54.80
2022-12-25T12:52:53.509Z,54.42
2022-12-25T12:55:32.544Z,54.75
2022-12-25T12:58:05.376Z,54.86
2022-12-25T13:00:52.563Z,54.42
2022-12-25T13:03:34.763Z,54.59
2022-12-25T13:06:17.539Z,54.38
2022-12-25T13:08:50.364Z,54.51
2022-12-25T13:11:22.643Z,54.64
2022-12-25T13:13:52.484Z,54.85
2022-12-25T13:16:36.715Z,54.39
2022-12-25T13:19:19.062Z,54.40
2022-12-25T13:22:00.363Z,54.35
2022-12-25T13:24:29.750Z,54.85
2022-12-25T13:26:56.587Z,54.34
2022-12-25T13:29:38.951Z,54.43
2022-12-25T13:32:14.224Z,54.37
2022-12-25T13:34:43.918Z,54.73
2022-12-25T13:37:15.218Z,54.65
2022-12-25T13:40:04.001Z,54.28
2022-12-25T13:42:36.818Z,54.51
2022-12-25T13:45:22.549Z,54.52
2022-12-25T13:47:55.239Z,54.55
2022-12-25T13:50:31.410Z,54.40
2022-12-25T13:53:10.051Z,54.36
2022-12-25T13:55:36.951Z,54.56
2022-12-25T13:58:07.054Z,54.32
2022-12-25T14:00:38.397Z,54.37
2022-12-25T14:03:09.907Z,54.66
2022-12-25T14:05:42.653Z,54.19
2022-12-25T14:08:20.094Z,54.51
2022-12-25T14:10:50.364Z,54.66
2022-12-25T14:13:19.782Z,54.65
2022-12-25T14:15:48.524Z,54.61
2022-12-25T14:18:20.475Z,54.48
2022-12-25T14:21:03.027Z,54.57
2022-12-25T14:23:42.073Z,54.54
2022-12-25T14:26:19.052Z,54.70
2022-12-25T14:28:51.754Z,54.84
2022-12-25T14:31:19.853Z,54.73
2022-12-25T14:33:48.166Z,54.48
2022-12-25T14:36:15.100Z,54.82
2022-12-25T14:38:43.948Z,54.13
2022-12-25T14:41:19.836Z,54.50
2022-12-25T14:43:55.751Z,54.34
2022-12-25T14:46:26.009Z,54.52
2022-12-25T14:49:01.428Z,54.92
2022-12-25T14:51:30.581Z,54.47
2022-12-25T14:54:01.826Z,54.61
2022-12-25T14:56:33.199Z,54.66
2022-12-25T14:59:00.298Z,54.26
2022-12-25T15:01:31.815Z,54.32
2022-12-25T15:04:07.670Z,54.13
2022-12-25T15:06:34.443Z,54.65
2022-12-25T15:09:04.595Z,54.59
2022-12-25T15:11:31.267Z,54.55
2022-12-25T15:13:58.735Z,54.38
2022-12-25T15:16:28.525Z,54.48
2022-12-25T15:18:55.736Z,54.39
2022-12-25T15:21:30.330Z,54.69
2022-12-25T15:23:59.325Z,54.12
2022-12-25T15:26:27.674Z,54.45
2022-12-25T15:28:54.360Z,54.60
2022-12-25T15:31:25.227Z,54.38
2022-12-25T15:33:56.516Z,54.09
2022-12-25T15:36:24.230Z,54.37
2022-12-25T15:38:52.027Z,54.37
2022-12-25T15:41:57.631Z,54.59
2022-12-25T15:44:25.453Z,54.55
2022-12-25T15:46:52.473Z,54.22
2022-12-25T15:49:19.469Z,54.28
2022-12-25T15:51:46.472Z,54.39
2022-12-25T15:54:13.218Z,54.13
2022-12-25T15:56:51.795Z,54.57
2022-12-25T15:59:20.458Z,54.29
2022-12-25T16:01:55.661Z,54.92
2022-12-25T16:04:23.484Z,54.60
2022-12-25T16:06:50.742Z,54.74
2022-12-25T16:09:19.977Z,54.51
2022-12-25T16:11:46.635Z,54.31
2022-12-25T16:14:13.874Z,54.36
2022-12-25T16:16:41.121Z,54.40
2022-12-25T16:19:08.314Z,54.59
2022-12-25T16:21:41.256Z,54.39
2022-12-25T16:24:08.641Z,54.44
2022-12-25T16:26:35.636Z,54.18
2022-12-25T16:29:07.318Z,54.20
2022-12-25T16:31:35.858Z,54.09
2022-12-25T16:34:03.626Z,53.88
2022-12-25T16:36:30.719Z,53.66
2022-12-25T16:38:57.628Z,53.81
2022-12-25T16:41:24.465Z,53.65
2022-12-25T16:43:51.173Z,53.83
2022-12-25T16:46:20.684Z,53.62
2022-12-25T16:48:47.671Z,53.66
2022-12-25T16:51:17.583Z,53.93
2022-12-25T16:53:44.795Z,53.86
2022-12-25T16:56:17.438Z,53.74
2022-12-25T16:58:48.681Z,53.84
2022-12-25T17:01:18.318Z,53.80
2022-12-25T17:03:45.681Z,53.76
2022-12-25T17:06:17.029Z,53.83
2022-12-25T17:08:44.227Z,53.37
2022-12-25T17:11:12.881Z,53.73
2022-12-25T17:13:39.883Z,53.60
2022-12-25T17:16:15.660Z,53.93
2022-12-25T17:18:42.445Z,53.96
2022-12-25T17:21:09.421Z,54.36
2022-12-25T17:23:37.973Z,53.97
2022-12-25T17:26:05.920Z,54.12
2022-12-25T17:28:34.653Z,53.69
2022-12-25T17:31:05.254Z,54.12
2022-12-25T17:33:32.067Z,53.77
2022-12-25T17:36:04.098Z,53.61
2022-12-25T17:38:31.750Z,53.50
2022-12-25T17:40:59.775Z,53.67
2022-12-25T17:43:26.899Z,53.81
2022-12-25T17:45:53.755Z,53.98
2022-12-25T17:48:20.419Z,53.97
2022-12-25T17:50:47.481Z,53.78
2022-12-25T17:53:14.178Z,54.16
2022-12-25T17:55:41.380Z,54.11
2022-12-25T17:58:08.683Z,54.03
2022-12-25T18:00:36.914Z,53.59
2022-12-25T18:03:10.858Z,53.57
2022-12-25T18:05:38.266Z,54.18
2022-12-25T18:08:05.458Z,54.07
2022-12-25T18:10:42.309Z,54.04
2022-12-25T18:13:11.114Z,53.77
2022-12-25T18:15:41.496Z,54.39
2022-12-25T18:18:09.270Z,54.39
2022-12-25T18:20:40.312Z,54.46
2022-12-25T18:23:08.525Z,54.04
2022-12-25T18:25:40.495Z,54.40
2022-12-25T18:28:07.262Z,54.44
2022-12-25T18:30:33.980Z,54.38
2022-12-25T18:33:00.701Z,54.60
2022-12-25T18:35:29.913Z,54.39
2022-12-25T18:37:56.724Z,54.19
2022-12-25T18:40:24.010Z,54.49
2022-12-25T18:42:53.823Z,54.37
2022-12-25T18:45:24.457Z,54.39
2022-12-25T18:47:51.185Z,54.67
2022-12-25T18:50:17.832Z,54.59
2022-12-25T18:52:49.767Z,54.60
2022-12-25T18:55:18.280Z,54.21
2022-12-25T18:57:45.013Z,54.67
2022-12-25T19:00:11.991Z,54.40
2022-12-25T19:02:39.185Z,54.64
2022-12-25T19:05:06.250Z,54.78
2022-12-25T19:07:33.111Z,54.46
2022-12-25T19:10:00.041Z,54.39
2022-12-25T19:12:26.893Z,54.84
2022-12-25T19:14:53.489Z,54.76
2022-12-25T19:17:20.236Z,54.81
2022-12-25T19:19:47.081Z,54.63
2022-12-25T19:22:13.789Z,54.63
2022-12-25T19:24:40.474Z,54.57
2022-12-25T19:27:07.235Z,54.44
2022-12-25T19:29:34.399Z,54.55
2022-12-25T19:32:01.326Z,54.53
2022-12-25T19:34:28.271Z,54.63
2022-12-25T19:36:55.083Z,54.42
2022-12-25T19:39:21.905Z,54.27
2022-12-25T19:41:48.730Z,54.37
2022-12-25T19:44:15.587Z,54.74
2022-12-25T19:46:42.871Z,54.50
2022-12-25T19:49:13.811Z,54.89
2022-12-25T19:51:43.264Z,54.82
2022-12-25T19:54:13.728Z,54.24
2022-12-25T19:56:41.507Z,54.40
2022-12-25T19:59:08.830Z,54.71
2022-12-25T20:01:35.728Z,54.63
2022-12-25T20:04:02.714Z,54.32
2022-12-25T20:06:32.092Z,54.59
2022-12-25T20:09:11.501Z,54.38
2022-12-25T20:11:38.544Z,54.50
2022-12-25T20:14:07.762Z,54.56
2022-12-25T20:16:36.674Z,54.71
2022-12-25T20:19:04.609Z,54.49
2022-12-25T20:21:31.658Z,54.39
2022-12-25T20:23:59.547Z,54.67
2022-12-25T20:26:29.041Z,54.43
2022-12-25T20:28:56.157Z,54.46
2022-12-25T20:31:27.435Z,54.48
2022-12-25T20:33:55.745Z,54.43
2022-12-25T20:36:22.914Z,54.41
2022-12-25T20:38:49.863Z,54.50
2022-12-25T20:41:28.492Z,54.60
2022-12-25T20:43:56.462Z,54.72
2022-12-25T20:46:24.084Z,54.71
2022-12-25T20:48:51.935Z,54.79
2022-12-25T20:51:24.685Z,54.48
2022-12-25T20:53:51.827Z,54.93
2022-12-25T20:56:20.566Z,54.41
2022-12-25T20:58:47.453Z,54.93
2022-12-25T21:01:17.412Z,54.46
2022-12-25T21:03:45.040Z,55.00
2022-12-25T21:06:12.689Z,54.65
2022-12-25T21:08:40.797Z,54.56
2022-12-25T21:11:08.768Z,54.86
2022-12-25T21:13:40.277Z,54.47
2022-12-25T21:16:12.767Z,54.83
2022-12-25T21:18:39.841Z,54.47
2022-12-25T21:21:07.923Z,54.69
2022-12-25T21:23:36.568Z,54.69
2022-12-25T21:26:19.087Z,54.78
2022-12-25T21:28:47.673Z,54.62
2022-12-25T21:31:14.775Z,54.94
2022-12-25T21:33:55.056Z,54.59
2022-12-25T21:36:27.526Z,54.89
2022-12-25T21:38:57.565Z,55.47
2022-12-25T21:41:25.320Z,55.33
2022-12-25T21:43:52.439Z,55.32
2022-12-25T21:46:19.454Z,55.53
2022-12-25T21:48:46.434Z,55.20
2022-12-25T21:51:35.369Z,55.42
2022-12-25T21:54:02.593Z,55.63
2022-12-25T21:56:31.208Z,55.67
2022-12-25T21:59:05.820Z,55.59
2022-12-25T22:01:32.632Z,55.40
2022-12-25T22:04:05.562Z,55.26
2022-12-25T22:06:51.630Z,55.22
2022-12-25T22:09:18.408Z,55.61
2022-12-25T22:12:03.692Z,55.13
2022-12-25T22:14:57.381Z,55.63
2022-12-25T22:17:45.898Z,55.35
2022-12-25T22:20:43.279Z,55.14
2022-12-25T22:23:09.962Z,55.06
2022-12-25T22:25:36.603Z,55.23
2022-12-25T22:28:03.556Z,55.29
2022-12-25T22:30:30.184Z,55.61
2022-12-25T22:32:57.370Z,55.67
2022-12-25T22:35:24.533Z,55.42
2022-12-25T22:37:51.370Z,55.54
2022-12-25T22:40:20.115Z,55.79
2022-12-25T22:42:47.296Z,55.55
2022-12-25T22:45:14.603Z,55.62
2022-12-25T22:47:41.553Z,56.17
2022-12-25T22:50:09.582Z,55.83
2022-12-25T22:52:38.812Z,55.84
2022-12-25T22:55:05.639Z,56.32
2022-12-25T22:57:32.377Z,55.87
2022-12-25T22:59:59.296Z,56.42
2022-12-25T23:02:26.209Z,56.38
2022-12-25T23:04:53.088Z,56.68
2022-12-25T23:07:19.792Z,56.73
2022-12-25T23:09:46.630Z,56.42
2022-12-25T23:12:33.410Z,57.21
2022-12-25T23:15:00.114Z,57.10
2022-12-25T23:17:45.502Z,57.25
2022-12-25T23:20:33.379Z,57.46
2022-12-25T23:23:19.099Z,57.25
2022-12-25T23:26:04.202Z,57.21
2022-12-25T23:28:49.377Z,57.34
2022-12-25T23:31:16.459Z,57.46
2022-12-25T23:33:43.223Z,57.49
2022-12-25T23:36:09.988Z,57.40
2022-12-25T23:38:36.789Z,57.56
2022-12-25T23:41:03.602Z,57.45
2022-12-25T23:43:30.327Z,57.59
2022-12-25T23:45:56.953Z,57.90
2022-12-25T23:48:23.604Z,57.83
2022-12-25T23:50:50.350Z,57.15
2022-12-25T23:53:17.176Z,57.00
2022-12-25T23:55:45.053Z,57.27
2022-12-25T23:58:14.200Z,57.73
